Time;durP1;ratioP1;P1;durP2;ratioP2;P2;SDS_P1;SDS_P2;PMS_P1;PMS_P2;Temp;Humidity;BMP_temperature;BMP_pressure;BME280_temperature;BME280_humidity;BME280_pressure;Samples;Min_cycle;Max_cycle;Signal;HPM_P1;HPM_P2
2021/08/27 00:00:55;;;;;;;;;;;11.90;99.90;;;;;;5098662;28;19923;-66
2021/08/27 00:03:21;;;;;;;;;;;11.90;99.90;;;;;;5100847;28;19919;-66
2021/08/27 00:05:46;;;;;;;;;;;11.90;99.90;;;;;;5100359;28;19931;-66
2021/08/27 00:08:12;;;;;;;;;;;11.90;99.90;;;;;;5100031;28;19926;-66
2021/08/27 00:10:37;;;;;;;;;;;11.90;99.90;;;;;;5096077;28;19920;-64
2021/08/27 00:13:03;;;;;;;;;;;11.80;99.90;;;;;;5094140;28;19916;-62
2021/08/27 00:15:29;;;;;;;;;;;11.80;99.90;;;;;;5092539;28;19916;-63
2021/08/27 00:17:54;;;;;;;;;;;11.90;99.90;;;;;;5086750;28;19963;-62
2021/08/27 00:20:20;;;;;;;;;;;11.90;99.90;;;;;;5079757;28;20411;-63
2021/08/27 00:22:45;;;;;;;;;;;11.90;99.90;;;;;;5080616;28;19919;-63
2021/08/27 00:25:11;;;;;;;;;;;11.80;99.90;;;;;;5079595;28;19999;-63
2021/08/27 00:27:37;;;;;;;;;;;11.80;99.90;;;;;;5078651;28;19963;-63
2021/08/27 00:30:02;;;;;;;;;;;11.90;99.90;;;;;;5078915;28;19919;-63
2021/08/27 00:32:28;;;;;;;;;;;11.90;99.90;;;;;;5079677;28;19985;-65
2021/08/27 00:34:53;;;;;;;;;;;11.90;99.90;;;;;;5079176;28;19963;-63
2021/08/27 00:37:19;;;;;;;;;;;11.80;99.90;;;;;;5081515;28;19939;-63
2021/08/27 00:39:45;;;;;;;;;;;11.80;99.90;;;;;;5080927;28;20350;-63
2021/08/27 00:42:10;;;;;;;;;;;11.80;99.90;;;;;;5081750;28;19916;-63
2021/08/27 00:44:36;;;;;;;;;;;11.80;99.90;;;;;;5080016;28;20397;-63
2021/08/27 00:47:01;;;;;;;;;;;11.70;99.90;;;;;;5078727;28;19924;-62
2021/08/27 00:49:27;;;;;;;;;;;11.80;99.90;;;;;;5083552;28;19920;-63
2021/08/27 00:51:52;;;;;;;;;;;11.80;99.90;;;;;;5081730;28;20007;-63
2021/08/27 00:54:19;;;;;;;;;;;11.70;99.90;;;;;;5078179;28;20004;-63
2021/08/27 00:56:44;;;;;;;;;;;11.70;99.90;;;;;;5083783;28;19917;-63
2021/08/27 00:59:10;;;;;;;;;;;11.70;99.90;;;;;;5079943;28;20506;-63
2021/08/27 01:01:35;;;;;;;;;;;11.70;99.90;;;;;;5084119;28;19939;-63
2021/08/27 01:04:01;;;;;;;;;;;11.70;99.90;;;;;;5083623;28;20277;-63
2021/08/27 01:06:35;;;;;;;;;;;11.60;99.90;;;;;;5082261;28;19924;-63
2021/08/27 01:09:03;;;;;;;;;;;11.70;99.90;;;;;;5084716;28;19927;-63
2021/08/27 01:11:28;;;;;;;;;;;11.70;99.90;;;;;;5081427;28;19920;-62
2021/08/27 01:13:57;;;;;;;;;;;11.80;99.90;;;;;;5084310;28;19922;-63
2021/08/27 01:16:23;;;;;;;;;;;11.80;99.90;;;;;;5086584;28;19920;-63
2021/08/27 01:18:51;;;;;;;;;;;11.70;99.90;;;;;;5081460;28;20303;-63
2021/08/27 01:21:36;;;;;;;;;;;11.70;99.90;;;;;;5081706;28;20733;-63
2021/08/27 01:24:04;;;;;;;;;;;11.70;99.90;;;;;;5086902;28;20001;-62
2021/08/27 01:26:32;;;;;;;;;;;11.70;99.90;;;;;;5079745;28;19924;-63
2021/08/27 01:28:59;;;;;;;;;;;11.70;99.90;;;;;;5082616;28;20350;-63
2021/08/27 01:31:25;;;;;;;;;;;11.70;99.90;;;;;;5077384;28;19916;-64
2021/08/27 01:33:59;;;;;;;;;;;11.70;99.90;;;;;;5076612;28;19916;-63
2021/08/27 01:36:28;;;;;;;;;;;11.70;99.90;;;;;;5076014;28;19926;-65
2021/08/27 01:38:54;;;;;;;;;;;11.70;99.90;;;;;;5075588;28;19920;-65
2021/08/27 01:41:19;;;;;;;;;;;11.70;99.90;;;;;;5076675;28;20003;-63
2021/08/27 01:43:45;;;;;;;;;;;11.60;99.90;;;;;;5079328;28;19916;-63
2021/08/27 01:46:12;;;;;;;;;;;11.70;99.90;;;;;;5075614;28;19920;-63
2021/08/27 01:48:38;;;;;;;;;;;11.70;99.90;;;;;;5080828;28;19984;-63
2021/08/27 01:51:05;;;;;;;;;;;11.70;99.90;;;;;;5082847;28;20399;-63
2021/08/27 01:53:31;;;;;;;;;;;11.70;99.90;;;;;;5077117;28;19920;-63
2021/08/27 01:55:57;;;;;;;;;;;11.80;99.90;;;;;;5076186;28;20003;-63
2021/08/27 01:58:24;;;;;;;;;;;11.80;99.90;;;;;;5076113;28;19951;-63
2021/08/27 02:00:49;;;;;;;;;;;11.80;99.90;;;;;;5083788;28;19947;-64
2021/08/27 02:03:15;;;;;;;;;;;11.80;99.90;;;;;;5082739;28;20296;-63
2021/08/27 02:05:41;;;;;;;;;;;11.70;99.90;;;;;;5079104;28;20652;-63
2021/08/27 02:08:07;;;;;;;;;;;11.70;99.90;;;;;;5078972;28;20570;-63
2021/08/27 02:10:33;;;;;;;;;;;11.70;99.90;;;;;;5078023;28;19919;-64
2021/08/27 02:12:59;;;;;;;;;;;11.60;99.90;;;;;;5082610;28;19923;-63
2021/08/27 02:15:25;;;;;;;;;;;11.60;99.90;;;;;;5082166;28;19968;-63
2021/08/27 02:17:50;;;;;;;;;;;11.60;99.90;;;;;;5079639;28;19916;-64
2021/08/27 02:20:16;;;;;;;;;;;11.60;99.90;;;;;;5081209;28;19960;-63
2021/08/27 02:22:44;;;;;;;;;;;11.60;99.90;;;;;;5081962;28;19988;-63
2021/08/27 02:25:14;;;;;;;;;;;11.70;99.90;;;;;;5083025;28;19923;-63
2021/08/27 02:27:41;;;;;;;;;;;11.60;99.90;;;;;;5083047;28;19984;-64
2021/08/27 02:30:07;;;;;;;;;;;11.60;99.90;;;;;;5082426;28;19920;-63
2021/08/27 02:32:33;;;;;;;;;;;11.50;99.90;;;;;;5084049;28;19920;-64
2021/08/27 02:35:00;;;;;;;;;;;11.50;99.90;;;;;;5083809;28;20283;-64
2021/08/27 02:37:27;;;;;;;;;;;11.60;99.90;;;;;;5076488;28;19915;-63
2021/08/27 02:39:52;;;;;;;;;;;11.60;99.90;;;;;;5075509;28;20011;-64
2021/08/27 02:42:19;;;;;;;;;;;11.60;99.90;;;;;;5081021;28;20011;-63
2021/08/27 02:44:44;;;;;;;;;;;11.60;99.90;;;;;;5079370;28;19962;-64
2021/08/27 02:47:10;;;;;;;;;;;11.60;99.90;;;;;;5082577;28;19920;-63
2021/08/27 02:49:36;;;;;;;;;;;11.60;99.90;;;;;;5086033;28;19927;-63
2021/08/27 02:52:11;;;;;;;;;;;11.60;99.90;;;;;;5085073;28;20022;-63
2021/08/27 02:54:46;;;;;;;;;;;11.60;99.90;;;;;;5087613;28;19951;-63
2021/08/27 02:57:12;;;;;;;;;;;11.60;99.90;;;;;;5088006;28;19927;-63
2021/08/27 02:59:38;;;;;;;;;;;11.60;99.90;;;;;;5082428;28;19927;-63
2021/08/27 03:02:04;;;;;;;;;;;11.60;99.90;;;;;;5084353;28;19943;-63
2021/08/27 03:04:48;;;;;;;;;;;11.50;99.90;;;;;;5084974;28;19916;-64
2021/08/27 03:07:14;;;;;;;;;;;11.50;99.90;;;;;;5074546;28;19973;-64
2021/08/27 03:09:50;;;;;;;;;;;11.50;99.90;;;;;;5081239;28;19920;-64
2021/08/27 03:12:17;;;;;;;;;;;11.50;99.90;;;;;;5082796;28;20390;-64
2021/08/27 03:15:02;;;;;;;;;;;11.50;99.90;;;;;;5084072;28;19920;-64
2021/08/27 03:17:30;;;;;;;;;;;11.50;99.90;;;;;;5077829;28;19920;-64
2021/08/27 03:19:59;;;;;;;;;;;11.50;99.90;;;;;;5078476;28;19974;-64
2021/08/27 03:22:27;;;;;;;;;;;11.50;99.90;;;;;;5080445;28;19927;-65
2021/08/27 03:24:55;;;;;;;;;;;11.50;99.90;;;;;;5077267;28;20303;-64
2021/08/27 03:27:22;;;;;;;;;;;11.50;99.90;;;;;;5078432;28;19921;-64
2021/08/27 03:29:53;;;;;;;;;;;11.40;99.90;;;;;;5073551;28;19963;-64
2021/08/27 03:32:19;;;;;;;;;;;11.40;99.90;;;;;;5074039;28;19916;-64
2021/08/27 03:34:45;;;;;;;;;;;11.50;99.90;;;;;;5077139;28;19916;-64
2021/08/27 03:37:11;;;;;;;;;;;11.50;99.90;;;;;;5081636;28;20023;-65
2021/08/27 03:39:37;;;;;;;;;;;11.50;99.90;;;;;;5077991;28;20334;-64
2021/08/27 03:42:03;;;;;;;;;;;11.50;99.90;;;;;;5073209;28;19916;-64
2021/08/27 03:44:30;;;;;;;;;;;11.50;99.90;;;;;;5075996;28;19916;-64
2021/08/27 03:46:56;;;;;;;;;;;11.50;99.90;;;;;;5079917;28;19924;-65
2021/08/27 03:49:22;;;;;;;;;;;11.50;99.90;;;;;;5078058;28;20711;-64
2021/08/27 03:51:48;;;;;;;;;;;11.50;99.90;;;;;;5077273;28;19920;-64
2021/08/27 03:54:15;;;;;;;;;;;11.50;99.90;;;;;;5081189;28;19916;-64
2021/08/27 03:56:41;;;;;;;;;;;11.50;99.90;;;;;;5080060;28;19924;-64
2021/08/27 03:59:07;;;;;;;;;;;11.50;99.90;;;;;;5080971;28;19915;-64
2021/08/27 04:01:33;;;;;;;;;;;11.50;99.90;;;;;;5076669;28;20311;-65
2021/08/27 04:03:59;;;;;;;;;;;11.50;99.90;;;;;;5086198;28;19939;-64
2021/08/27 04:06:24;;;;;;;;;;;11.50;99.90;;;;;;5078539;28;20375;-64
2021/08/27 04:08:50;;;;;;;;;;;11.50;99.90;;;;;;5078482;28;19985;-64
2021/08/27 04:11:17;;;;;;;;;;;11.50;99.90;;;;;;5080284;28;19915;-64
2021/08/27 04:13:43;;;;;;;;;;;11.50;99.90;;;;;;5081383;28;19969;-64
2021/08/27 04:16:08;;;;;;;;;;;11.50;99.90;;;;;;5080145;28;19966;-64
2021/08/27 04:18:34;;;;;;;;;;;11.50;99.90;;;;;;5083904;28;19957;-64
2021/08/27 04:21:00;;;;;;;;;;;11.50;99.90;;;;;;5084005;28;19920;-64
2021/08/27 04:23:26;;;;;;;;;;;11.50;99.90;;;;;;5087973;28;20014;-63
2021/08/27 04:25:51;;;;;;;;;;;11.50;99.90;;;;;;5087927;28;19924;-65
2021/08/27 04:28:17;;;;;;;;;;;11.50;99.90;;;;;;5088408;28;20348;-68
2021/08/27 04:30:43;;;;;;;;;;;11.50;99.90;;;;;;5081580;28;19916;-66
2021/08/27 04:33:08;;;;;;;;;;;11.40;99.90;;;;;;5088568;28;20002;-66
2021/08/27 04:35:34;;;;;;;;;;;11.40;99.90;;;;;;5087105;28;19923;-65
2021/08/27 04:37:59;;;;;;;;;;;11.40;99.90;;;;;;5083240;28;20311;-64
2021/08/27 04:40:25;;;;;;;;;;;11.50;99.90;;;;;;5083688;28;19916;-65
2021/08/27 04:42:51;;;;;;;;;;;11.50;99.90;;;;;;5091148;28;19923;-65
2021/08/27 04:45:16;;;;;;;;;;;11.50;99.90;;;;;;5081238;28;19916;-63
2021/08/27 04:47:42;;;;;;;;;;;11.60;99.90;;;;;;5088374;28;19923;-65
2021/08/27 04:50:08;;;;;;;;;;;11.50;99.90;;;;;;5085696;28;19930;-64
2021/08/27 04:52:34;;;;;;;;;;;11.50;99.90;;;;;;5080822;28;19916;-64
2021/08/27 04:54:59;;;;;;;;;;;11.40;99.90;;;;;;5075563;28;19927;-64
2021/08/27 04:57:25;;;;;;;;;;;11.40;99.90;;;;;;5075827;28;19924;-64
2021/08/27 04:59:51;;;;;;;;;;;11.40;99.90;;;;;;5080757;28;19920;-64
2021/08/27 05:02:17;;;;;;;;;;;11.40;99.90;;;;;;5080832;28;19920;-64
2021/08/27 05:04:42;;;;;;;;;;;11.40;99.90;;;;;;5081515;28;19943;-64
2021/08/27 05:07:08;;;;;;;;;;;11.50;99.90;;;;;;5087899;28;19934;-64
2021/08/27 05:09:34;;;;;;;;;;;11.50;99.90;;;;;;5082409;28;19951;-64
2021/08/27 05:11:59;;;;;;;;;;;11.50;99.90;;;;;;5083287;28;19928;-64
2021/08/27 05:14:25;;;;;;;;;;;11.40;99.90;;;;;;5082114;28;19919;-69
2021/08/27 05:16:50;;;;;;;;;;;11.40;99.90;;;;;;5079145;28;19994;-65
2021/08/27 05:19:16;;;;;;;;;;;11.40;99.90;;;;;;5081592;28;19935;-64
2021/08/27 05:21:41;;;;;;;;;;;11.50;99.90;;;;;;5078166;28;19916;-64
2021/08/27 05:24:07;;;;;;;;;;;11.50;99.90;;;;;;5082496;28;20062;-64
2021/08/27 05:26:33;;;;;;;;;;;11.40;99.90;;;;;;5079163;28;20683;-65
2021/08/27 05:28:59;;;;;;;;;;;11.50;99.90;;;;;;5083232;28;19930;-64
2021/08/27 05:31:25;;;;;;;;;;;11.50;99.90;;;;;;5085396;28;19926;-64
2021/08/27 05:33:50;;;;;;;;;;;11.50;99.90;;;;;;5083490;28;19924;-64
2021/08/27 05:36:16;;;;;;;;;;;11.50;99.90;;;;;;5075288;28;20542;-64
2021/08/27 05:38:41;;;;;;;;;;;11.60;99.90;;;;;;5071959;28;19916;-64
2021/08/27 05:41:07;;;;;;;;;;;11.60;99.90;;;;;;5075796;28;20003;-64
2021/08/27 05:43:32;;;;;;;;;;;11.60;99.90;;;;;;5074995;28;20018;-65
2021/08/27 05:45:58;;;;;;;;;;;11.60;99.90;;;;;;5079512;28;19923;-64
2021/08/27 05:48:24;;;;;;;;;;;11.60;99.90;;;;;;5082472;28;19919;-65
2021/08/27 05:50:49;;;;;;;;;;;11.60;99.90;;;;;;5084242;28;19912;-64
2021/08/27 05:53:15;;;;;;;;;;;11.50;99.90;;;;;;5088224;28;19915;-64
2021/08/27 05:55:41;;;;;;;;;;;11.50;99.90;;;;;;5089323;28;20483;-64
2021/08/27 05:58:06;;;;;;;;;;;11.50;99.90;;;;;;5073417;28;19938;-63
2021/08/27 06:00:32;;;;;;;;;;;11.50;99.90;;;;;;5076968;28;20003;-64
2021/08/27 06:02:57;;;;;;;;;;;11.50;99.90;;;;;;5074520;28;19916;-63
2021/08/27 06:05:23;;;;;;;;;;;11.50;99.90;;;;;;5078918;28;19920;-64
2021/08/27 06:07:49;;;;;;;;;;;11.50;99.90;;;;;;5084108;28;20364;-64
2021/08/27 06:10:14;;;;;;;;;;;11.60;99.90;;;;;;5077803;28;20391;-63
2021/08/27 06:12:40;;;;;;;;;;;11.60;99.90;;;;;;5080004;28;19916;-64
2021/08/27 06:15:06;;;;;;;;;;;11.60;99.90;;;;;;5080968;28;19916;-64
2021/08/27 06:17:31;;;;;;;;;;;11.50;99.90;;;;;;5082229;28;19916;-63
2021/08/27 06:19:57;;;;;;;;;;;11.50;99.90;;;;;;5078953;28;19955;-64
2021/08/27 06:22:22;;;;;;;;;;;11.50;99.90;;;;;;5076084;28;20342;-63
2021/08/27 06:24:48;;;;;;;;;;;11.50;99.90;;;;;;5080118;28;20760;-64
2021/08/27 06:27:14;;;;;;;;;;;11.60;99.90;;;;;;5071589;28;19943;-64
2021/08/27 06:29:39;;;;;;;;;;;11.60;99.90;;;;;;5077942;28;19916;-64
2021/08/27 06:32:05;;;;;;;;;;;11.70;99.90;;;;;;5073986;28;20402;-64
2021/08/27 06:34:30;;;;;;;;;;;11.70;99.90;;;;;;5075712;28;19916;-64
2021/08/27 06:36:56;;;;;;;;;;;11.70;99.90;;;;;;5078834;28;20046;-64
2021/08/27 06:39:21;;;;;;;;;;;11.70;99.90;;;;;;5079038;28;19920;-64
2021/08/27 06:41:47;;;;;;;;;;;11.70;99.90;;;;;;5083146;28;20017;-64
2021/08/27 06:44:13;;;;;;;;;;;11.60;99.90;;;;;;5077026;28;19916;-64
2021/08/27 06:46:38;;;;;;;;;;;11.60;99.90;;;;;;5074833;28;19924;-64
2021/08/27 06:49:04;;;;;;;;;;;11.60;99.90;;;;;;5079057;28;19973;-64
2021/08/27 06:51:29;;;;;;;;;;;11.60;99.90;;;;;;5076241;28;19922;-64
2021/08/27 06:53:55;;;;;;;;;;;11.60;99.90;;;;;;5077341;28;20423;-64
2021/08/27 06:56:21;;;;;;;;;;;11.50;99.90;;;;;;5079918;28;19963;-64
2021/08/27 06:58:46;;;;;;;;;;;11.60;99.90;;;;;;5075504;28;19916;-64
2021/08/27 07:01:12;;;;;;;;;;;11.60;99.90;;;;;;5072919;28;19981;-64
2021/08/27 07:03:37;;;;;;;;;;;11.70;99.90;;;;;;5079064;28;19923;-64
2021/08/27 07:06:02;;;;;;;;;;;11.70;99.90;;;;;;5078419;28;19924;-64
2021/08/27 07:08:28;;;;;;;;;;;11.70;99.90;;;;;;5081340;28;20414;-64
2021/08/27 07:10:53;;;;;;;;;;;11.70;99.90;;;;;;5082646;28;20307;-65
2021/08/27 07:13:19;;;;;;;;;;;11.70;99.90;;;;;;5076961;28;19923;-64
2021/08/27 07:15:45;;;;;;;;;;;11.70;99.90;;;;;;5073841;28;19955;-63
2021/08/27 07:18:10;;;;;;;;;;;11.60;99.90;;;;;;5078799;28;19931;-64
2021/08/27 07:20:37;;;;;;;;;;;11.70;99.90;;;;;;5076844;28;19927;-63
2021/08/27 07:23:02;;;;;;;;;;;11.70;99.90;;;;;;5085075;28;19973;-64
2021/08/27 07:25:28;;;;;;;;;;;11.70;99.90;;;;;;5085523;28;20464;-63
2021/08/27 07:27:53;;;;;;;;;;;11.70;99.90;;;;;;5086976;28;19931;-63
2021/08/27 07:30:19;;;;;;;;;;;11.70;99.90;;;;;;5089516;28;19915;-64
2021/08/27 07:32:44;;;;;;;;;;;11.80;99.90;;;;;;5090036;28;19923;-64
2021/08/27 07:35:11;;;;;;;;;;;11.70;99.90;;;;;;5078722;28;19920;-64
2021/08/27 07:37:37;;;;;;;;;;;11.70;99.90;;;;;;5078398;28;19969;-64
2021/08/27 07:40:04;;;;;;;;;;;11.70;99.90;;;;;;5075319;28;20582;-64
2021/08/27 07:42:31;;;;;;;;;;;11.70;99.90;;;;;;5083197;28;19948;-63
2021/08/27 07:44:56;;;;;;;;;;;11.80;99.90;;;;;;5081039;28;19919;-63
2021/08/27 07:47:22;;;;;;;;;;;11.80;99.90;;;;;;5079405;28;19927;-63
2021/08/27 07:49:47;;;;;;;;;;;11.90;99.90;;;;;;5078753;28;20095;-64
2021/08/27 07:52:13;;;;;;;;;;;11.90;99.90;;;;;;5078982;28;19955;-64
2021/08/27 07:54:38;;;;;;;;;;;11.90;99.90;;;;;;5079596;28;20346;-63
2021/08/27 07:57:04;;;;;;;;;;;11.90;99.90;;;;;;5081019;28;20303;-63
2021/08/27 07:59:29;;;;;;;;;;;11.90;99.90;;;;;;5079649;28;19920;-63
2021/08/27 08:01:55;;;;;;;;;;;11.90;99.90;;;;;;5080215;28;20336;-64
2021/08/27 08:04:20;;;;;;;;;;;11.80;99.90;;;;;;5079361;28;19920;-64
2021/08/27 08:06:46;;;;;;;;;;;11.90;99.90;;;;;;5082914;28;19943;-64
2021/08/27 08:09:11;;;;;;;;;;;11.80;99.90;;;;;;5085966;28;19923;-63
2021/08/27 08:11:37;;;;;;;;;;;11.70;99.90;;;;;;5081655;28;20257;-65
2021/08/27 08:14:03;;;;;;;;;;;11.80;99.90;;;;;;5084336;28;19919;-64
2021/08/27 08:16:28;;;;;;;;;;;11.70;99.90;;;;;;5082284;28;19916;-65
2021/08/27 08:18:54;;;;;;;;;;;11.80;99.90;;;;;;5086588;28;20284;-64
2021/08/27 08:21:23;;;;;;;;;;;11.80;99.90;;;;;;5083781;28;19926;-64
2021/08/27 08:23:52;;;;;;;;;;;11.90;99.90;;;;;;5080671;28;19916;-65
2021/08/27 08:26:19;;;;;;;;;;;12.00;99.90;;;;;;5077873;28;19924;-65
2021/08/27 08:28:46;;;;;;;;;;;12.00;99.90;;;;;;5078848;28;19920;-64
2021/08/27 08:31:17;;;;;;;;;;;12.00;99.90;;;;;;5080836;28;19916;-63
2021/08/27 08:33:43;;;;;;;;;;;12.10;99.90;;;;;;5078633;28;19916;-64
2021/08/27 08:36:08;;;;;;;;;;;12.00;99.90;;;;;;5080210;28;19930;-64
2021/08/27 08:38:34;;;;;;;;;;;12.00;99.90;;;;;;5081521;28;20135;-64
2021/08/27 08:40:59;;;;;;;;;;;12.10;99.90;;;;;;5083098;28;19922;-63
2021/08/27 08:43:25;;;;;;;;;;;12.00;99.90;;;;;;5077839;28;19916;-64
2021/08/27 08:45:51;;;;;;;;;;;12.00;99.90;;;;;;5076395;28;19946;-64
2021/08/27 08:48:20;;;;;;;;;;;12.00;99.90;;;;;;5083945;28;19923;-63
2021/08/27 08:50:46;;;;;;;;;;;12.10;99.90;;;;;;5080636;28;19962;-64
2021/08/27 08:53:12;;;;;;;;;;;12.10;99.90;;;;;;5084456;28;19960;-63
2021/08/27 08:55:38;;;;;;;;;;;12.10;99.90;;;;;;5087146;28;19917;-64
2021/08/27 08:58:04;;;;;;;;;;;12.20;99.90;;;;;;5085470;28;19993;-64
2021/08/27 09:00:29;;;;;;;;;;;12.20;99.90;;;;;;5084460;28;19916;-65
2021/08/27 09:02:55;;;;;;;;;;;12.10;99.90;;;;;;5090379;28;19920;-63
2021/08/27 09:05:21;;;;;;;;;;;12.10;99.90;;;;;;5090913;28;19927;-63
2021/08/27 09:07:46;;;;;;;;;;;12.10;99.90;;;;;;5091209;28;19920;-62
2021/08/27 09:10:19;;;;;;;;;;;12.10;99.90;;;;;;5090444;28;19973;-64
2021/08/27 09:12:45;;;;;;;;;;;12.20;99.90;;;;;;5088091;28;19924;-63
2021/08/27 09:15:11;;;;;;;;;;;12.20;99.90;;;;;;5092144;28;20006;-64
2021/08/27 09:17:39;;;;;;;;;;;12.20;99.90;;;;;;5089261;28;19916;-64
2021/08/27 09:20:09;;;;;;;;;;;12.30;99.90;;;;;;5077793;28;20124;-64
2021/08/27 09:22:54;;;;;;;;;;;12.30;99.90;;;;;;5083140;28;19946;-64
2021/08/27 09:25:21;;;;;;;;;;;12.30;99.90;;;;;;5078842;28;20341;-64
2021/08/27 09:28:06;;;;;;;;;;;12.30;99.90;;;;;;5079149;28;19923;-64
2021/08/27 09:30:33;;;;;;;;;;;12.30;99.90;;;;;;5084996;28;19919;-64
2021/08/27 09:33:06;;;;;;;;;;;12.30;99.90;;;;;;5090756;28;19958;-63
2021/08/27 09:35:31;;;;;;;;;;;12.30;99.90;;;;;;5081360;28;19916;-63
2021/08/27 09:37:57;;;;;;;;;;;12.30;99.90;;;;;;5085935;28;19965;-63
2021/08/27 09:40:27;;;;;;;;;;;12.30;99.90;;;;;;5082543;28;20857;-63
2021/08/27 09:42:54;;;;;;;;;;;12.30;99.90;;;;;;5086490;28;19917;-63
2021/08/27 09:45:31;;;;;;;;;;;12.40;99.90;;;;;;5086376;28;19916;-63
2021/08/27 09:47:57;;;;;;;;;;;12.40;99.90;;;;;;5079490;28;19924;-63
2021/08/27 09:50:24;;;;;;;;;;;12.30;99.90;;;;;;5080847;28;19920;-63
2021/08/27 09:52:57;;;;;;;;;;;12.30;99.90;;;;;;5083589;28;19984;-63
2021/08/27 09:55:22;;;;;;;;;;;12.30;99.90;;;;;;5075035;28;20003;-63
2021/08/27 09:57:49;;;;;;;;;;;12.40;99.90;;;;;;5077520;28;20019;-62
2021/08/27 10:00:18;;;;;;;;;;;12.40;99.90;;;;;;5080292;28;19924;-63
2021/08/27 10:02:44;;;;;;;;;;;12.40;99.90;;;;;;5080121;28;19916;-63
2021/08/27 10:05:10;;;;;;;;;;;12.40;99.90;;;;;;5078680;28;19926;-63
2021/08/27 10:07:40;;;;;;;;;;;12.40;99.90;;;;;;5087263;28;19966;-63
2021/08/27 10:10:15;;;;;;;;;;;12.40;99.90;;;;;;5083088;28;20375;-63
2021/08/27 10:12:42;;;;;;;;;;;12.40;99.90;;;;;;5078988;28;19916;-63
2021/08/27 10:15:08;;;;;;;;;;;12.40;99.90;;;;;;5079453;28;19919;-63
2021/08/27 10:17:35;;;;;;;;;;;12.40;99.90;;;;;;5079376;28;19961;-63
2021/08/27 10:20:02;;;;;;;;;;;12.40;99.90;;;;;;5078618;28;19922;-63
2021/08/27 10:22:28;;;;;;;;;;;12.40;99.90;;;;;;5078420;28;19998;-63
2021/08/27 10:24:53;;;;;;;;;;;12.50;99.90;;;;;;5077382;28;20008;-63
2021/08/27 10:27:19;;;;;;;;;;;12.60;99.90;;;;;;5075674;28;20027;-63
2021/08/27 10:29:48;;;;;;;;;;;12.70;99.90;;;;;;5075380;28;19970;-63
2021/08/27 10:32:14;;;;;;;;;;;12.80;99.90;;;;;;5075756;28;19920;-63
2021/08/27 10:34:43;;;;;;;;;;;12.80;99.90;;;;;;5081480;28;19923;-63
2021/08/27 10:37:29;;;;;;;;;;;12.80;99.90;;;;;;5073514;28;20331;-63
2021/08/27 10:39:54;;;;;;;;;;;12.80;99.90;;;;;;5078423;28;20007;-63
2021/08/27 10:42:39;;;;;;;;;;;13.00;99.90;;;;;;5083266;28;20366;-63
2021/08/27 10:45:04;;;;;;;;;;;13.00;99.90;;;;;;5078539;28;19916;-63
2021/08/27 10:47:30;;;;;;;;;;;13.10;99.90;;;;;;5078404;28;19927;-63
2021/08/27 10:49:56;;;;;;;;;;;13.10;99.90;;;;;;5084290;28;19969;-63
2021/08/27 10:52:29;;;;;;;;;;;13.10;99.90;;;;;;5087741;28;19926;-65
2021/08/27 10:55:04;;;;;;;;;;;13.10;99.90;;;;;;5087625;28;19916;-63
2021/08/27 10:57:41;;;;;;;;;;;13.10;99.90;;;;;;5087438;28;20374;-63
2021/08/27 11:00:07;;;;;;;;;;;13.10;99.90;;;;;;5087500;28;19916;-63
2021/08/27 11:02:49;;;;;;;;;;;13.00;99.90;;;;;;5087792;28;19926;-63
2021/08/27 11:05:29;;;;;;;;;;;13.00;99.90;;;;;;5088075;28;20294;-62
2021/08/27 11:07:59;;;;;;;;;;;12.90;99.90;;;;;;5088029;28;19927;-63
2021/08/27 11:10:25;;;;;;;;;;;12.90;99.90;;;;;;5088545;28;19916;-63
2021/08/27 11:12:57;;;;;;;;;;;12.90;99.90;;;;;;5087556;28;19938;-63
2021/08/27 11:15:24;;;;;;;;;;;12.90;99.90;;;;;;5088477;28;20433;-62
2021/08/27 11:18:05;;;;;;;;;;;13.00;99.90;;;;;;5087686;28;19970;-63
2021/08/27 11:20:30;;;;;;;;;;;13.00;99.90;;;;;;5084509;28;19938;-63
2021/08/27 11:22:56;;;;;;;;;;;13.10;99.90;;;;;;5087884;28;20379;-63
2021/08/27 11:25:23;;;;;;;;;;;13.10;99.90;;;;;;5088391;28;19958;-63
2021/08/27 11:28:08;;;;;;;;;;;13.30;99.90;;;;;;5087955;28;20018;-63
2021/08/27 11:30:34;;;;;;;;;;;13.50;99.90;;;;;;5086051;28;19920;-63
2021/08/27 11:33:01;;;;;;;;;;;13.50;99.90;;;;;;5087320;28;19998;-66
2021/08/27 11:35:30;;;;;;;;;;;13.60;99.90;;;;;;5086304;28;19923;-65
2021/08/27 11:37:59;;;;;;;;;;;13.50;99.90;;;;;;5087515;28;19919;-64
2021/08/27 11:40:25;;;;;;;;;;;13.50;99.90;;;;;;5084372;28;20294;-62
2021/08/27 11:42:54;;;;;;;;;;;13.40;99.90;;;;;;5086845;28;20041;-63
2021/08/27 11:45:21;;;;;;;;;;;13.40;99.90;;;;;;5086777;28;19923;-65
2021/08/27 11:47:54;;;;;;;;;;;13.40;99.90;;;;;;5086315;28;19935;-64
2021/08/27 11:50:20;;;;;;;;;;;13.40;99.90;;;;;;5079867;28;20290;-63
2021/08/27 11:52:48;;;;;;;;;;;13.30;99.90;;;;;;5082427;28;19923;-63
2021/08/27 11:55:16;;;;;;;;;;;13.30;99.90;;;;;;5082206;28;19995;-64
2021/08/27 11:57:49;;;;;;;;;;;13.40;99.90;;;;;;5069587;28;19926;-63
2021/08/27 12:00:14;;;;;;;;;;;13.50;99.90;;;;;;5078918;28;19920;-64
2021/08/27 12:02:40;;;;;;;;;;;13.50;99.90;;;;;;5087087;28;19976;-64
2021/08/27 12:05:10;;;;;;;;;;;13.50;99.90;;;;;;5087124;28;19915;-63
2021/08/27 12:07:40;;;;;;;;;;;13.50;99.90;;;;;;5087463;28;19930;-64
2021/08/27 12:10:05;;;;;;;;;;;13.50;99.90;;;;;;5086910;28;20341;-63
2021/08/27 12:12:32;;;;;;;;;;;13.60;99.90;;;;;;5087584;28;19915;-63
2021/08/27 12:14:58;;;;;;;;;;;13.60;99.90;;;;;;5090117;28;20295;-64
2021/08/27 12:17:25;;;;;;;;;;;13.60;99.90;;;;;;5090113;28;20003;-64
2021/08/27 12:19:51;;;;;;;;;;;13.60;99.90;;;;;;5086906;28;19966;-64
2021/08/27 12:22:18;;;;;;;;;;;13.60;99.90;;;;;;5090446;28;19924;-63
2021/08/27 12:24:47;;;;;;;;;;;13.60;99.90;;;;;;5090464;28;19919;-63
2021/08/27 12:27:13;;;;;;;;;;;13.50;99.90;;;;;;5090290;28;20310;-63
2021/08/27 12:29:38;;;;;;;;;;;13.50;99.90;;;;;;5090009;28;19923;-63
2021/08/27 12:32:04;;;;;;;;;;;13.50;99.90;;;;;;5090090;28;20395;-64
2021/08/27 12:34:30;;;;;;;;;;;13.50;99.90;;;;;;5090185;28;19946;-64
2021/08/27 12:36:55;;;;;;;;;;;13.40;99.90;;;;;;5090765;28;19924;-64
2021/08/27 12:39:21;;;;;;;;;;;13.30;99.90;;;;;;5089582;28;19954;-64
2021/08/27 12:41:46;;;;;;;;;;;13.30;99.90;;;;;;5090447;28;19970;-63
2021/08/27 12:44:16;;;;;;;;;;;13.20;99.90;;;;;;5089829;28;19949;-64
2021/08/27 12:46:46;;;;;;;;;;;13.20;99.90;;;;;;5089640;28;19951;-63
2021/08/27 12:49:18;;;;;;;;;;;13.20;99.90;;;;;;5089493;28;19927;-64
2021/08/27 12:51:45;;;;;;;;;;;13.30;99.90;;;;;;5086277;28;19916;-64
2021/08/27 12:54:12;;;;;;;;;;;13.30;99.90;;;;;;5090245;28;19916;-64
2021/08/27 12:56:37;;;;;;;;;;;13.20;99.90;;;;;;5090505;28;19923;-63
2021/08/27 12:59:16;;;;;;;;;;;13.20;99.90;;;;;;5074908;28;19916;-64
2021/08/27 13:01:42;;;;;;;;;;;13.20;99.90;;;;;;5070289;28;20007;-64
2021/08/27 13:04:07;;;;;;;;;;;13.20;99.90;;;;;;5070724;28;20027;-64
2021/08/27 13:06:40;;;;;;;;;;;13.30;99.90;;;;;;5071078;28;19920;-64
2021/08/27 13:09:14;;;;;;;;;;;13.30;99.90;;;;;;5070106;28;19980;-64
2021/08/27 13:11:43;;;;;;;;;;;13.30;99.90;;;;;;5069871;28;19951;-64
2021/08/27 13:14:26;;;;;;;;;;;13.30;99.90;;;;;;5070837;28;19963;-64
2021/08/27 13:17:05;;;;;;;;;;;13.30;99.90;;;;;;5068294;28;19965;-64
2021/08/27 13:19:48;;;;;;;;;;;13.40;99.90;;;;;;5069665;28;19920;-63
2021/08/27 13:22:15;;;;;;;;;;;13.40;99.90;;;;;;5081814;28;19916;-65
2021/08/27 13:24:41;;;;;;;;;;;13.40;99.90;;;;;;5089879;28;19920;-64
2021/08/27 13:27:06;;;;;;;;;;;13.40;99.90;;;;;;5089673;28;19920;-64
2021/08/27 13:29:32;;;;;;;;;;;13.40;99.90;;;;;;5089526;28;19916;-64
2021/08/27 13:31:58;;;;;;;;;;;13.40;99.90;;;;;;5089712;28;19920;-63
2021/08/27 13:34:23;;;;;;;;;;;13.40;99.90;;;;;;5089738;28;20030;-64
2021/08/27 13:36:49;;;;;;;;;;;13.40;99.90;;;;;;5089611;28;19923;-64
2021/08/27 13:39:15;;;;;;;;;;;13.30;99.90;;;;;;5089248;28;19969;-64
2021/08/27 13:41:40;;;;;;;;;;;13.30;99.90;;;;;;5089713;28;19972;-64
2021/08/27 13:44:06;;;;;;;;;;;13.30;99.90;;;;;;5088293;28;19924;-63
2021/08/27 13:46:35;;;;;;;;;;;13.30;99.90;;;;;;5088852;28;19927;-64
2021/08/27 13:49:02;;;;;;;;;;;13.30;99.90;;;;;;5089170;28;19970;-64
2021/08/27 13:51:28;;;;;;;;;;;13.20;99.90;;;;;;5086230;28;19920;-63
2021/08/27 13:53:53;;;;;;;;;;;13.20;99.90;;;;;;5089011;28;19927;-63
2021/08/27 13:56:18;;;;;;;;;;;13.20;99.90;;;;;;5086128;28;19999;-63
2021/08/27 13:58:44;;;;;;;;;;;13.20;99.90;;;;;;5073169;28;19920;-63
2021/08/27 14:01:09;;;;;;;;;;;13.20;99.90;;;;;;5068105;28;19916;-63
2021/08/27 14:03:35;;;;;;;;;;;13.20;99.90;;;;;;5068806;28;20600;-63
2021/08/27 14:06:00;;;;;;;;;;;13.10;99.90;;;;;;5068452;28;20311;-63
2021/08/27 14:08:26;;;;;;;;;;;13.20;99.90;;;;;;5067966;28;19920;-63
2021/08/27 14:10:51;;;;;;;;;;;13.20;99.90;;;;;;5076357;28;19920;-62
2021/08/27 14:13:16;;;;;;;;;;;13.20;99.90;;;;;;5088606;28;19996;-62
2021/08/27 14:15:43;;;;;;;;;;;13.20;99.90;;;;;;5087803;28;19994;-64